Time;durP1;ratioP1;P1;durP2;ratioP2;P2;SDS_P1;SDS_P2;PMS_P1;PMS_P2;Temp;Humidity;BMP_temperature;BMP_pressure;BME280_temperature;BME280_humidity;BME280_pressure;Samples;Min_cycle;Max_cycle;Signal;HPM_P1;HPM_P2
2021/01/23 00:00:33;;;;;;;;;5.00;5.00;;;;;13.21;47.64;96730.31;4852536;28;104106;-77
2021/01/23 00:02:59;;;;;;;;;5.00;4.00;;;;;13.17;47.02;96721.88;4847758;28;103422;-77
2021/01/23 00:05:26;;;;;;;;;6.00;5.50;;;;;13.20;47.42;96728.66;4857012;28;103478;-77
2021/01/23 00:07:55;;;;;;;;;5.75;5.75;;;;;13.18;47.81;96728.13;4840760;28;102264;-77
2021/01/23 00:10:21;;;;;;;;;6.50;6.50;;;;;13.20;47.69;96720.53;4847272;28;104375;-77
2021/01/23 00:12:48;;;;;;;;;8.00;6.75;;;;;13.18;47.02;96715.38;4869781;28;102449;-77
2021/01/23 00:15:15;;;;;;;;;5.00;5.00;;;;;13.20;47.78;96715.09;4849006;28;103618;-77
2021/01/23 00:17:41;;;;;;;;;4.25;4.25;;;;;13.18;47.27;96711.84;4860260;28;104764;-77
2021/01/23 00:20:09;;;;;;;;;6.00;5.00;;;;;13.19;47.41;96721.63;4834753;28;103729;-77
2021/01/23 00:22:36;;;;;;;;;4.75;4.75;;;;;13.19;47.11;96725.13;4868493;28;102699;-77
2021/01/23 00:25:03;;;;;;;;;5.25;5.25;;;;;13.19;47.35;96721.63;4870395;28;104718;-77
2021/01/23 00:27:30;;;;;;;;;10.00;5.75;;;;;13.18;46.77;96720.81;4863656;28;102410;-77
2021/01/23 00:29:58;;;;;;;;;5.00;5.00;;;;;13.18;47.18;96726.22;4852708;28;102544;-77
2021/01/23 00:32:26;;;;;;;;;8.25;5.00;;;;;13.17;47.72;96723.78;4869817;28;104880;-77
2021/01/23 00:34:52;;;;;;;;;5.25;5.25;;;;;13.15;47.46;96709.66;4844222;28;103610;-77
2021/01/23 00:37:19;;;;;;;;;4.25;4.25;;;;;13.14;47.05;96714.28;4819983;28;102480;-77
2021/01/23 00:39:46;;;;;;;;;5.00;4.00;;;;;13.16;47.25;96717.53;4845667;28;102628;-77
2021/01/23 00:42:12;;;;;;;;;4.50;4.00;;;;;13.16;47.12;96706.66;4832260;28;102584;-77
2021/01/23 00:44:39;;;;;;;;;5.00;3.50;;;;;13.15;46.86;96710.47;4863780;28;103950;-77
2021/01/23 00:47:06;;;;;;;;;5.50;5.00;;;;;13.15;47.13;96713.16;4850233;28;102505;-77
2021/01/23 00:49:32;;;;;;;;;4.00;4.00;;;;;13.16;46.96;96714.00;4848687;28;102622;-77
2021/01/23 00:51:59;;;;;;;;;7.00;6.00;;;;;13.14;47.13;96698.00;4847127;28;102598;-77
2021/01/23 00:54:26;;;;;;;;;5.00;4.00;;;;;13.14;47.62;96706.13;4847085;28;103404;-77
2021/01/23 00:56:52;;;;;;;;;4.75;4.75;;;;;13.14;46.85;96697.16;4856471;28;103881;-77
2021/01/23 00:59:19;;;;;;;;;5.00;4.25;;;;;13.15;46.69;96706.97;4833778;28;102413;-77
2021/01/23 01:01:46;;;;;;;;;5.00;4.75;;;;;13.14;47.60;96698.00;4850507;28;104259;-77
2021/01/23 01:04:13;;;;;;;;;5.00;3.50;;;;;13.14;47.07;96691.75;4845992;28;105048;-77
2021/01/23 01:06:39;;;;;;;;;5.00;4.00;;;;;13.13;46.64;96681.97;4845053;28;102484;-77
2021/01/23 01:09:06;;;;;;;;;5.00;5.00;;;;;13.14;46.82;96691.75;4829806;28;102493;-77
2021/01/23 01:11:33;;;;;;;;;4.50;4.00;;;;;13.12;47.04;96683.03;4825830;28;102493;-77
2021/01/23 01:13:59;;;;;;;;;4.25;3.00;;;;;13.13;46.53;96684.69;4845028;28;103441;-77
2021/01/23 01:16:26;;;;;;;;;7.75;5.50;;;;;13.11;46.89;96679.50;4845914;28;103861;-77
2021/01/23 01:18:53;;;;;;;;;5.75;4.00;;;;;13.12;46.87;96677.59;4855512;28;102596;-77
2021/01/23 01:21:20;;;;;;;;;4.00;3.00;;;;;13.11;47.47;96676.78;4843037;28;104378;-77
2021/01/23 01:23:46;;;;;;;;;5.50;4.25;;;;;13.12;46.82;96670.28;4846012;28;103415;-77
2021/01/23 01:26:13;;;;;;;;;5.00;4.00;;;;;13.10;47.31;96669.72;4827018;28;102490;-77
2021/01/23 01:28:40;;;;;;;;;5.00;4.00;;;;;13.12;47.26;96666.75;4846616;28;102589;-77
2021/01/23 01:31:06;;;;;;;;;4.00;4.00;;;;;13.10;46.82;96664.28;4843289;28;103163;-77
2021/01/23 01:33:33;;;;;;;;;3.25;3.25;;;;;13.08;47.26;96652.88;4836591;28;103649;-77
2021/01/23 01:36:00;;;;;;;;;3.25;3.25;;;;;13.10;46.78;96661.59;4846118;28;104599;-77
2021/01/23 01:38:27;;;;;;;;;4.00;4.00;;;;;13.10;46.88;96650.72;4846741;28;102574;-77
2021/01/23 01:40:53;;;;;;;;;4.50;4.00;;;;;13.09;46.59;96651.81;4850136;28;102393;-77
2021/01/23 01:43:20;;;;;;;;;4.25;4.00;;;;;13.10;46.55;96660.75;4847258;28;103520;-77
2021/01/23 01:45:47;;;;;;;;;6.75;4.75;;;;;13.10;47.37;96664.28;4844955;28;103184;-77
2021/01/23 01:48:14;;;;;;;;;4.00;4.00;;;;;13.09;47.36;96665.38;4844605;28;102669;-77
2021/01/23 01:50:42;;;;;;;;;3.00;3.00;;;;;13.08;47.47;96661.03;4847002;28;102461;-77
2021/01/23 01:53:09;;;;;;;;;3.25;3.25;;;;;13.09;46.91;96662.66;4836934;28;103581;-77
2021/01/23 01:55:36;;;;;;;;;3.00;3.00;;;;;13.09;46.54;96659.13;4849523;28;105631;-77
2021/01/23 01:58:04;;;;;;;;;2.75;2.75;;;;;13.07;46.67;96656.66;4836605;28;102568;-77
2021/01/23 02:00:31;;;;;;;;;5.50;3.25;;;;;13.08;47.12;96650.16;4848189;28;102429;-77
2021/01/23 02:03:16;;;;;;;;;2.50;2.50;;;;;13.06;47.11;96636.03;4835929;28;103422;-77
2021/01/23 02:06:05;;;;;;;;;4.00;4.00;;;;;13.07;47.28;96640.38;4810546;28;102385;-77
2021/01/23 02:08:50;;;;;;;;;3.00;3.00;;;;;13.08;46.60;96633.06;4837547;28;103515;-77
2021/01/23 02:11:22;;;;;;;;;4.00;4.00;;;;;13.07;46.87;96632.25;4822478;28;102638;-77
2021/01/23 02:14:19;;;;;;;;;3.00;3.00;;;;;13.04;46.57;96638.22;4839545;28;103482;-77
2021/01/23 02:16:48;;;;;;;;;4.75;4.00;;;;;13.06;47.19;96629.81;4789074;28;102459;-77
2021/01/23 02:19:35;;;;;;;;;4.75;4.00;;;;;13.07;47.45;96620.56;4850214;28;102512;-77
2021/01/23 02:22:28;;;;;;;;;5.00;4.00;;;;;13.06;46.83;96610.81;4787785;28;102398;-77
2021/01/23 02:24:56;;;;;;;;;6.75;4.00;;;;;13.05;46.76;96612.72;4848734;28;108047;-77
2021/01/23 02:27:41;;;;;;;;;3.00;3.00;;;;;13.04;47.42;96613.78;4835224;28;102326;-77
2021/01/23 02:30:17;;;;;;;;;3.25;3.00;;;;;13.05;47.36;96615.44;4785438;28;102405;-77
2021/01/23 02:32:48;;;;;;;;;4.00;3.50;;;;;13.04;47.29;96619.22;4841869;28;103002;-77
2021/01/23 02:35:18;;;;;;;;;3.00;2.00;;;;;13.04;47.13;96616.50;4850200;28;103297;-77
2021/01/23 02:37:46;;;;;;;;;4.75;4.00;;;;;13.05;46.66;96614.63;4827172;28;102583;-77
2021/01/23 02:40:16;;;;;;;;;5.00;4.00;;;;;13.04;46.68;96611.06;4840622;28;102686;-77
2021/01/23 02:42:46;;;;;;;;;4.50;3.00;;;;;13.03;46.52;96606.72;4847353;28;102571;-77
2021/01/23 02:45:16;;;;;;;;;3.00;3.00;;;;;13.03;46.61;96604.00;4841964;28;103324;-77
2021/01/23 02:47:46;;;;;;;;;4.25;2.25;;;;;13.04;47.26;96602.13;4848822;28;102545;-77
2021/01/23 02:50:13;;;;;;;;;3.00;3.00;;;;;13.03;47.07;96604.00;4839996;28;102561;-77
2021/01/23 02:53:03;;;;;;;;;4.00;4.00;;;;;13.03;46.62;96598.59;4848350;28;102524;-77
2021/01/23 02:55:32;;;;;;;;;3.25;3.25;;;;;13.04;47.05;96604.84;4831612;28;109274;-77
2021/01/23 02:58:01;;;;;;;;;4.00;4.00;;;;;13.03;47.05;96606.72;4835414;28;102907;-77
2021/01/23 03:00:29;;;;;;;;;3.50;2.75;;;;;13.02;47.38;96604.28;4844891;28;102975;-77
2021/01/23 03:02:56;;;;;;;;;3.75;3.75;;;;;13.01;46.26;96603.47;4827216;28;102617;-77
2021/01/23 03:05:23;;;;;;;;;3.75;3.00;;;;;13.02;47.21;96599.66;4844078;28;104388;-77
2021/01/23 03:07:53;;;;;;;;;4.00;3.00;;;;;13.02;46.97;96591.53;4829793;28;102434;-77
2021/01/23 03:10:38;;;;;;;;;4.25;3.50;;;;;13.03;46.88;96593.16;4851069;28;102739;-77
2021/01/23 03:13:05;;;;;;;;;2.75;2.00;;;;;13.02;46.65;96585.28;4791764;28;102583;-77
2021/01/23 03:15:32;;;;;;;;;3.00;3.00;;;;;13.00;47.34;96588.28;4848082;28;103358;-77
2021/01/23 03:17:59;;;;;;;;;2.75;2.00;;;;;13.00;47.23;96596.41;4848614;28;102357;-77
2021/01/23 03:20:26;;;;;;;;;2.50;2.50;;;;;13.01;46.70;96584.50;4851508;28;102548;-77
2021/01/23 03:22:56;;;;;;;;;3.00;3.00;;;;;13.01;46.49;96584.50;4845133;28;102641;-77
2021/01/23 03:25:24;;;;;;;;;3.25;3.00;;;;;13.01;46.91;96583.66;4847066;28;108769;-77
2021/01/23 03:27:51;;;;;;;;;2.25;2.25;;;;;13.00;46.46;96577.44;4843872;28;105886;-77
2021/01/23 03:30:18;;;;;;;;;3.00;3.00;;;;;13.00;46.29;96573.91;4848846;28;102395;-77
2021/01/23 03:32:45;;;;;;;;;4.75;4.25;;;;;13.01;46.94;96570.09;4840486;28;102496;-77
2021/01/23 03:35:12;;;;;;;;;2.00;2.00;;;;;12.99;46.49;96554.09;4846546;28;104849;-77
2021/01/23 03:37:39;;;;;;;;;3.50;3.25;;;;;12.99;46.91;96559.50;4850590;28;102521;-77
2021/01/23 03:40:07;;;;;;;;;2.50;2.50;;;;;12.99;46.92;96554.09;4840644;28;102570;-77
2021/01/23 03:42:34;;;;;;;;;2.00;2.00;;;;;13.00;46.58;96547.59;4846406;28;102716;-77
2021/01/23 03:45:01;;;;;;;;;2.00;2.00;;;;;12.99;46.39;96548.66;4831652;28;103329;-77
2021/01/23 03:47:28;;;;;;;;;2.00;2.00;;;;;12.98;47.21;96541.59;4845994;28;105222;-77
2021/01/23 03:49:55;;;;;;;;;3.00;3.00;;;;;12.98;46.57;96544.31;4847726;28;102582;-77
2021/01/23 03:52:22;;;;;;;;;2.75;2.00;;;;;13.00;47.06;96544.06;4851704;28;102460;-77
2021/01/23 03:54:48;;;;;;;;;3.00;3.00;;;;;12.97;46.36;96540.78;4849246;28;103826;-77
2021/01/23 03:57:15;;;;;;;;;3.75;2.00;;;;;12.98;46.52;96541.59;4852939;28;103567;-77
2021/01/23 03:59:42;;;;;;;;;2.25;2.00;;;;;12.96;46.45;96536.47;4846688;28;103312;-77
2021/01/23 04:02:08;;;;;;;;;2.50;2.00;;;;;12.97;47.15;96534.53;4845942;28;105225;-77
2021/01/23 04:04:35;;;;;;;;;4.00;3.50;;;;;12.97;46.27;96532.63;4853630;28;104903;-77
2021/01/23 04:07:02;;;;;;;;;3.25;3.00;;;;;12.95;47.19;96536.72;4848232;28;102617;-77
2021/01/23 04:09:29;;;;;;;;;2.25;1.50;;;;;12.97;46.85;96539.97;4834621;28;102839;-77
2021/01/23 04:11:56;;;;;;;;;3.00;2.50;;;;;12.97;47.03;96537.25;4851912;28;102576;-77
2021/01/23 04:14:22;;;;;;;;;1.00;1.00;;;;;12.96;47.11;96544.59;4854449;28;104089;-77
2021/01/23 04:16:49;;;;;;;;;2.00;2.00;;;;;12.97;47.00;96545.38;4850170;28;102586;-77
2021/01/23 04:19:16;;;;;;;;;2.00;2.00;;;;;12.97;47.28;96550.81;4864045;28;102669;-77
2021/01/23 04:21:43;;;;;;;;;3.00;3.00;;;;;12.96;46.24;96543.78;4848085;28;102625;-77
2021/01/23 04:24:10;;;;;;;;;2.00;1.00;;;;;12.97;46.55;96534.53;4852118;28;103381;-77
2021/01/23 04:26:39;;;;;;;;;2.00;2.00;;;;;12.96;46.42;96538.34;4830047;28;102457;-77
2021/01/23 04:29:06;;;;;;;;;5.25;2.00;;;;;12.95;46.99;96532.09;4845970;28;102451;-77
2021/01/23 04:31:34;;;;;;;;;3.00;3.00;;;;;12.95;47.05;96528.56;4849323;28;102544;-77
2021/01/23 04:34:01;;;;;;;;;1.00;1.00;;;;;12.95;46.23;96521.25;4837743;28;103386;-77
2021/01/23 04:36:28;;;;;;;;;3.00;2.25;;;;;12.95;46.15;96523.97;4855924;28;102355;-77
2021/01/23 04:38:55;;;;;;;;;2.50;2.00;;;;;12.95;46.51;96539.44;4843342;28;102518;-77
2021/01/23 04:41:21;;;;;;;;;2.75;2.00;;;;;12.95;46.51;96532.09;4849485;28;102468;-77
2021/01/23 04:43:48;;;;;;;;;2.00;2.00;;;;;12.95;46.93;96534.00;4848369;28;104407;-77
2021/01/23 04:46:17;;;;;;;;;2.25;1.75;;;;;12.95;46.30;96531.28;4846722;28;102776;-77
2021/01/23 04:48:44;;;;;;;;;3.00;3.00;;;;;12.91;46.44;96508.50;4849977;28;110937;-77
2021/01/23 04:51:11;;;;;;;;;3.00;3.00;;;;;12.93;46.12;96523.41;4843423;28;105798;-77
2021/01/23 04:53:39;;;;;;;;;2.00;2.00;;;;;12.94;47.15;96508.75;4837139;28;104123;-77
2021/01/23 04:56:06;;;;;;;;;1.00;1.00;;;;;12.93;46.36;96512.56;4850776;28;102347;-77
2021/01/23 04:58:36;;;;;;;;;2.50;2.00;;;;;12.94;47.29;96502.53;4843012;28;103307;-77
2021/01/23 05:01:03;;;;;;;;;2.00;2.00;;;;;12.93;47.24;96496.28;4855584;28;102529;-77
2021/01/23 05:03:29;;;;;;;;;1.50;1.50;;;;;12.94;47.13;96487.06;4849704;28;103414;-77
2021/01/23 05:06:06;;;;;;;;;2.00;1.75;;;;;12.94;47.03;96483.53;4847232;28;102374;-77
2021/01/23 05:08:36;;;;;;;;;2.00;2.00;;;;;12.92;46.79;96477.56;4848677;28;102330;-77
2021/01/23 05:11:04;;;;;;;;;2.00;2.00;;;;;12.94;46.42;96491.66;4847537;28;102528;-77
2021/01/23 05:13:30;;;;;;;;;3.00;2.00;;;;;12.93;46.47;96487.31;4831999;28;103971;-77
2021/01/23 05:15:57;;;;;;;;;3.00;3.00;;;;;12.92;46.33;96483.78;4859541;28;102483;-77
2021/01/23 05:18:24;;;;;;;;;3.00;1.75;;;;;12.92;46.34;96488.44;4845799;28;105724;-77
2021/01/23 05:20:52;;;;;;;;;3.50;2.50;;;;;12.90;46.08;96480.56;4852856;28;102418;-77
2021/01/23 05:23:28;;;;;;;;;2.00;2.00;;;;;12.90;46.58;96490.59;4844389;28;103975;-77
2021/01/23 05:25:58;;;;;;;;;1.00;1.00;;;;;12.92;47.07;96499.28;4835926;28;102407;-77
2021/01/23 05:28:35;;;;;;;;;2.00;1.00;;;;;12.93;46.85;96487.31;4849477;28;102434;-77
2021/01/23 05:31:04;;;;;;;;;3.00;2.00;;;;;12.92;46.87;96493.84;4843177;28;102640;-77
2021/01/23 05:33:31;;;;;;;;;1.75;1.50;;;;;12.90;46.66;96496.81;4848282;28;103391;-77
2021/01/23 05:36:16;;;;;;;;;3.50;2.00;;;;;12.92;46.64;96493.84;4857839;28;104267;-77
2021/01/23 05:38:44;;;;;;;;;1.50;1.50;;;;;12.92;46.75;96496.56;4733225;28;102690;-77
2021/01/23 05:41:15;;;;;;;;;2.00;2.00;;;;;12.92;46.73;96488.44;4871238;28;102553;-77
2021/01/23 05:43:51;;;;;;;;;2.00;2.00;;;;;12.90;46.41;96477.03;4847818;28;104130;-77
2021/01/23 05:46:19;;;;;;;;;2.00;2.00;;;;;12.92;46.99;96483.00;4862255;28;102326;-77
2021/01/23 05:48:49;;;;;;;;;2.25;1.00;;;;;12.90;46.79;96472.41;4858516;28;102572;-77
2021/01/23 05:51:17;;;;;;;;;2.00;1.00;;;;;12.90;46.94;96471.59;4850018;28;104597;-77
2021/01/23 05:53:44;;;;;;;;;1.00;1.00;;;;;12.90;46.19;96477.03;4864782;28;103939;-77
2021/01/23 05:56:11;;;;;;;;;1.50;1.50;;;;;12.90;46.83;96477.84;4839852;28;105020;-77
2021/01/23 05:58:39;;;;;;;;;1.75;1.75;;;;;12.90;46.52;96479.72;4841211;28;102388;-77
2021/01/23 06:01:10;;;;;;;;;2.00;1.00;;;;;12.90;46.94;96479.72;4866255;28;102382;-77
2021/01/23 06:03:38;;;;;;;;;2.00;1.50;;;;;12.90;46.40;96477.84;4867546;28;103454;-77
2021/01/23 06:06:05;;;;;;;;;2.75;1.75;;;;;12.90;46.39;96485.16;4846166;28;102633;-77
2021/01/23 06:08:38;;;;;;;;;2.00;1.25;;;;;12.89;46.36;96483.50;4848407;28;103842;-77
2021/01/23 06:11:06;;;;;;;;;1.00;1.00;;;;;12.89;46.59;96473.50;4865273;28;102467;-77
2021/01/23 06:13:35;;;;;;;;;1.00;1.00;;;;;12.90;46.54;96472.41;4811620;28;104925;-77
2021/01/23 06:16:02;;;;;;;;;1.25;1.00;;;;;12.89;46.30;96467.25;4850983;28;102412;-77
2021/01/23 06:18:30;;;;;;;;;1.50;1.00;;;;;12.90;46.65;96460.75;4857333;28;102470;-77
2021/01/23 06:21:01;;;;;;;;;2.00;1.00;;;;;12.89;46.95;96462.63;4848371;28;103327;-77
2021/01/23 06:23:48;;;;;;;;;3.75;2.00;;;;;12.89;46.37;96456.41;4864883;28;108698;-77
2021/01/23 06:26:15;;;;;;;;;1.75;1.75;;;;;12.90;46.15;96463.47;4802661;28;104068;-77
2021/01/23 06:28:42;;;;;;;;;0.00;0.00;;;;;12.88;46.99;96449.34;4848532;28;104156;-77
2021/01/23 06:31:31;;;;;;;;;1.75;1.75;;;;;12.90;46.17;96458.03;4850610;28;102335;-77
2021/01/23 06:33:58;;;;;;;;;2.50;2.00;;;;;12.89;46.26;96461.81;4829097;28;110009;-77
2021/01/23 06:36:26;;;;;;;;;2.00;1.00;;;;;12.88;46.32;96455.56;4840942;28;102544;-77
2021/01/23 06:39:04;;;;;;;;;1.00;0.75;;;;;12.88;46.59;96452.03;4838396;28;102377;-77
2021/01/23 06:41:32;;;;;;;;;2.00;2.00;;;;;12.89;46.93;96453.69;4843400;28;102428;-77
2021/01/23 06:44:08;;;;;;;;;1.00;1.00;;;;;12.88;46.42;96461.00;4838628;28;108860;-77
2021/01/23 06:46:41;;;;;;;;;1.00;1.00;;;;;12.87;46.83;96458.56;4841408;28;102575;-77
2021/01/23 06:49:10;;;;;;;;;2.00;1.00;;;;;12.90;46.40;96460.75;4833135;28;103635;-77
2021/01/23 06:51:39;;;;;;;;;2.75;1.50;;;;;12.88;46.86;96463.72;4847875;28;102503;-77
2021/01/23 06:54:11;;;;;;;;;2.00;1.00;;;;;12.88;46.68;96465.59;4804586;28;103391;-77
2021/01/23 06:56:54;;;;;;;;;0.25;0.25;;;;;12.87;46.84;96461.28;4828690;28;102517;-77
2021/01/23 06:59:28;;;;;;;;;1.75;1.75;;;;;12.87;46.80;96470.25;4859470;28;102545;-77
2021/01/23 07:02:07;;;;;;;;;1.75;1.75;;;;;12.86;46.34;96468.59;4838803;28;104598;-77
2021/01/23 07:04:45;;;;;;;;;0.50;0.50;;;;;12.87;46.31;96466.72;4841120;28;109080;-77
2021/01/23 07:07:12;;;;;;;;;0.50;0.50;;;;;12.87;46.80;96464.00;4846537;28;102346;-77
2021/01/23 07:09:55;;;;;;;;;1.00;1.00;;;;;12.87;46.47;96469.44;4847340;28;102321;-77
2021/01/23 07:12:47;;;;;;;;;1.00;1.00;;;;;12.88;46.96;96468.31;4848328;28;102587;-77
2021/01/23 07:15:22;;;;;;;;;1.00;1.00;;;;;12.87;46.09;96461.28;4716679;28;108851;-77
2021/01/23 07:17:52;;;;;;;;;1.25;1.25;;;;;12.85;46.90;96455.31;4842769;28;102543;-77
2021/01/23 07:20:19;;;;;;;;;1.75;1.75;;;;;12.88;47.20;96465.59;4845679;28;102806;-77
2021/01/23 07:22:46;;;;;;;;;1.00;1.00;;;;;12.87;46.33;96461.28;4854821;28;103687;-77
2021/01/23 07:25:14;;;;;;;;;2.00;1.75;;;;;12.87;46.99;96466.72;4840718;28;103607;-77
2021/01/23 07:27:41;;;;;;;;;1.00;1.00;;;;;12.86;46.96;96462.38;4856009;28;102403;-77
2021/01/23 07:30:15;;;;;;;;;1.50;1.00;;;;;12.86;46.85;96478.63;4850332;28;102365;-77
2021/01/23 07:32:46;;;;;;;;;1.00;1.00;;;;;12.86;46.49;96478.63;4844985;28;103202;-77
2021/01/23 07:35:14;;;;;;;;;1.00;1.00;;;;;12.86;46.98;96484.06;4868698;28;105322;-77
2021/01/23 07:37:54;;;;;;;;;1.50;1.50;;;;;12.87;46.33;96480.28;4841415;28;102492;-77
2021/01/23 07:40:25;;;;;;;;;1.00;1.00;;;;;12.85;46.70;96485.97;4837798;28;110041;-77
2021/01/23 07:42:52;;;;;;;;;1.75;1.75;;;;;12.86;46.34;96478.63;4845642;28;102520;-77
2021/01/23 07:45:20;;;;;;;;;2.00;2.00;;;;;12.86;47.21;96484.06;4834267;28;103866;-77
2021/01/23 07:47:59;;;;;;;;;1.00;1.00;;;;;12.85;47.12;96474.28;4870099;28;102644;-77
2021/01/23 07:50:43;;;;;;;;;1.00;1.00;;;;;12.85;46.39;96468.88;4871677;28;102424;-77
2021/01/23 07:53:16;;;;;;;;;2.00;1.00;;;;;12.87;46.77;96472.13;4864878;28;102493;-77
2021/01/23 07:55:43;;;;;;;;;1.00;1.00;;;;;12.86;46.22;96467.78;4863931;28;103593;-77
2021/01/23 07:58:10;;;;;;;;;3.00;1.00;;;;;12.85;46.34;96461.53;4864974;28;102409;-77
2021/01/23 08:00:37;;;;;;;;;1.00;1.00;;;;;12.85;46.65;96452.59;4836417;28;103058;-77
2021/01/23 08:03:05;;;;;;;;;2.50;1.75;;;;;12.84;46.44;96449.06;4869230;28;103210;-77
2021/01/23 08:05:45;;;;;;;;;0.25;0.25;;;;;12.87;47.03;96466.72;4849018;28;112278;-77
2021/01/23 08:08:30;;;;;;;;;2.00;0.00;;;;;12.86;46.15;96468.59;4804624;28;102612;-77
2021/01/23 08:11:00;;;;;;;;;1.00;1.00;;;;;12.85;46.23;96471.56;4875393;28;102466;-77
2021/01/23 08:13:30;;;;;;;;;0.50;0.50;;;;;12.86;47.25;96467.78;4869160;28;104459;-78
2021/01/23 08:16:15;;;;;;;;;0.00;0.00;;;;;12.86;47.13;96456.94;4850580;28;104442;-78
2021/01/23 08:18:45;;;;;;;;;1.00;1.00;;;;;12.87;47.42;96461.28;4757791;28;102636;-78
2021/01/23 08:21:21;;;;;;;;;1.00;0.00;;;;;12.86;46.67;96468.59;4873391;28;102577;-81
2021/01/23 08:23:47;;;;;;;;;1.00;1.00;;;;;12.87;47.57;96464.81;4847222;28;102961;-78
2021/01/23 08:26:15;;;;;;;;;1.25;0.75;;;;;12.87;47.93;96453.97;4833045;28;103265;-78
2021/01/23 08:28:43;;;;;;;;;1.00;1.00;;;;;12.88;47.21;96447.44;4851696;28;102492;-78
2021/01/23 08:31:20;;;;;;;;;2.25;2.00;;;;;12.88;47.52;96460.19;4849212;28;102597;-78
2021/01/23 08:33:52;;;;;;;;;1.00;1.00;;;;;12.90;47.48;96458.03;4873366;28;102525;-78
2021/01/23 08:36:19;;;;;;;;;1.25;1.00;;;;;12.89;47.80;96459.94;4850369;28;103804;-78
2021/01/23 08:38:46;;;;;;;;;1.75;1.75;;;;;12.89;47.31;96446.38;4861806;28;103516;-78
2021/01/23 08:41:13;;;;;;;;;1.00;1.00;;;;;12.91;47.51;96451.53;4837776;28;102488;-78
2021/01/23 08:43:40;;;;;;;;;2.50;1.00;;;;;12.92;47.34;96455.88;4868187;28;102539;-78
2021/01/23 08:46:06;;;;;;;;;1.00;1.00;;;;;12.91;47.29;96448.81;4874572;28;104831;-79
2021/01/23 08:48:33;;;;;;;;;1.00;1.00;;;;;12.90;47.52;96452.59;4855116;28;102289;-78
2021/01/23 08:51:00;;;;;;;;;1.00;1.00;;;;;12.92;47.64;96462.09;4871603;28;102317;-78
2021/01/23 08:53:26;;;;;;;;;1.25;1.00;;;;;12.90;47.45;96455.31;4871729;28;105306;-78
2021/01/23 08:55:53;;;;;;;;;1.00;1.00;;;;;12.91;48.21;96456.97;4873369;28;103413;-78
2021/01/23 08:58:20;;;;;;;;;0.00;0.00;;;;;12.92;47.83;96461.31;4867651;28;102347;-78
2021/01/23 09:00:46;;;;;;;;;1.75;1.00;;;;;12.91;47.83;96459.66;4872682;28;102448;-78
2021/01/23 09:03:13;;;;;;;;;1.50;1.00;;;;;12.91;47.68;96454.25;4873843;28;102239;-78
2021/01/23 09:05:40;;;;;;;;;0.25;0.25;;;;;12.92;47.93;96464.81;4863675;28;105239;-78
2021/01/23 09:08:07;;;;;;;;;1.50;1.50;;;;;12.92;47.91;96451.25;4868808;28;104468;-78
2021/01/23 09:10:33;;;;;;;;;1.25;1.25;;;;;12.92;48.10;96450.47;4870368;28;102367;-78
2021/01/23 09:13:00;;;;;;;;;1.00;1.00;;;;;12.91;47.36;96443.41;4869581;28;102530;-78
2021/01/23 09:15:27;;;;;;;;;1.00;1.00;;;;;12.92;47.93;96445.03;4851167;28;103722;-79
2021/01/23 09:17:53;;;;;;;;;2.00;1.00;;;;;12.92;48.09;96445.03;4868466;28;102279;-78
2021/01/23 09:20:20;;;;;;;;;0.75;0.75;;;;;12.92;47.95;96434.19;4869702;28;102211;-78
2021/01/23 09:22:47;;;;;;;;;1.00;1.00;;;;;12.92;47.11;96429.53;4851908;28;102561;-78
2021/01/23 09:25:13;;;;;;;;;0.00;0.00;;;;;12.92;47.65;96428.75;4862997;28;104006;-78
2021/01/23 09:27:40;;;;;;;;;1.00;0.00;;;;;12.91;47.06;96427.13;4856695;28;103594;-78
2021/01/23 09:30:07;;;;;;;;;1.00;1.00;;;;;12.93;47.05;96433.06;4874540;28;102434;-78
2021/01/23 09:32:34;;;;;;;;;1.50;1.00;;;;;12.92;46.95;96431.47;4865752;28;102503;-78
2021/01/23 09:35:03;;;;;;;;;0.25;0.25;;;;;12.86;47.71;96413.53;4854165;28;103708;-78
2021/01/23 09:37:30;;;;;;;;;0.75;0.75;;;;;12.92;47.54;96415.19;4853037;28;102521;-78
2021/01/23 09:39:57;;;;;;;;;1.00;0.75;;;;;12.88;47.57;96425.75;4849393;28;103406;-78
2021/01/23 09:42:23;;;;;;;;;1.00;1.00;;;;;12.93;47.65;96430.34;4849621;28;102730;-78
2021/01/23 09:44:50;;;;;;;;;0.75;0.75;;;;;12.92;47.26;96429.53;4853216;28;104773;-78
2021/01/23 09:47:17;;;;;;;;;0.00;0.00;;;;;12.94;47.48;96429.28;4853359;28;102677;-78
2021/01/23 09:49:44;;;;;;;;;0.00;0.00;;;;;12.93;47.72;96439.31;4850618;28;102436;-78
2021/01/23 09:52:11;;;;;;;;;0.00;0.00;;;;;12.94;47.67;96437.41;4850695;28;105073;-78
2021/01/23 09:54:37;;;;;;;;;1.50;1.50;;;;;12.93;47.40;96431.19;4854144;28;103715;-78
2021/01/23 09:57:05;;;;;;;;;1.00;0.75;;;;;12.93;47.46;96425.75;4855474;28;102282;-78
2021/01/23 09:59:32;;;;;;;;;1.25;0.75;;;;;12.92;47.06;96423.34;4846352;28;102474;-78
2021/01/23 10:01:59;;;;;;;;;1.50;1.00;;;;;12.94;46.90;96421.97;4852405;28;102343;-78
2021/01/23 10:04:27;;;;;;;;;0.00;0.00;;;;;12.93;47.21;96419.50;4847630;28;105417;-78
2021/01/23 10:06:54;;;;;;;;;1.00;1.00;;;;;12.94;47.36;96427.38;4832015;28;102461;-78
2021/01/23 10:09:21;;;;;;;;;1.00;1.00;;;;;12.95;47.31;96436.34;4848367;28;102261;-78
2021/01/23 10:11:48;;;;;;;;;0.00;0.00;;;;;12.96;46.79;96424.41;4845680;28;104469;-78
2021/01/23 10:14:15;;;;;;;;;1.00;1.00;;;;;12.95;46.84;96417.34;4821717;28;103834;-78
2021/01/23 10:16:42;;;;;;;;;0.25;0.25;;;;;12.96;47.79;96413.56;4848225;28;102451;-78
2021/01/23 10:19:09;;;;;;;;;1.25;1.00;;;;;12.95;46.82;96420.06;4850854;28;102538;-78
2021/01/23 10:21:36;;;;;;;;;1.00;1.00;;;;;12.96;47.40;96421.72;4854609;28;102347;-78
2021/01/23 10:24:03;;;;;;;;;0.00;0.00;;;;;12.96;46.76;96429.84;4850894;28;103146;-78
2021/01/23 10:26:30;;;;;;;;;1.75;1.00;;;;;12.96;47.62;96427.94;4837195;28;102528;-78
2021/01/23 10:28:57;;;;;;;;;1.00;1.00;;;;;12.97;47.34;96421.41;4856940;28;102551;-78
2021/01/23 10:31:23;;;;;;;;;2.50;1.00;;;;;12.96;47.15;96419.81;4853784;28;102513;-78
2021/01/23 10:33:50;;;;;;;;;0.00;0.00;;;;;12.97;47.64;96420.59;4848142;28;102707;-78
2021/01/23 10:36:18;;;;;;;;;0.75;0.25;;;;;12.98;47.39;96438.50;4858161;28;102841;-78
2021/01/23 10:38:46;;;;;;;;;0.00;0.00;;;;;12.98;46.81;96442.03;4851508;28;103966;-78
2021/01/23 10:41:13;;;;;;;;;1.00;0.25;;;;;12.99;46.85;96445.56;4858689;28;102382;-78
2021/01/23 10:43:40;;;;;;;;;1.00;1.00;;;;;12.98;46.66;96450.19;4852193;28;103448;-78
2021/01/23 10:46:06;;;;;;;;;1.00;0.00;;;;;12.97;47.21;96447.72;4856006;28;102420;-78
2021/01/23 10:48:33;;;;;;;;;1.00;0.25;;;;;12.99;46.99;96448.28;4855108;28;102363;-78
2021/01/23 10:51:00;;;;;;;;;1.00;1.00;;;;;12.99;46.78;96445.56;4856938;28;102589;-78
2021/01/23 10:53:27;;;;;;;;;0.75;0.75;;;;;12.97;47.38;96442.31;4852129;28;103450;-78
2021/01/23 10:55:54;;;;;;;;;1.00;1.00;;;;;13.00;47.58;96447.22;4854987;28;102507;-78
2021/01/23 10:58:21;;;;;;;;;0.50;0.25;;;;;13.00;47.25;96435.53;4850559;28;103931;-78
2021/01/23 11:00:47;;;;;;;;;0.00;0.00;;;;;12.99;47.20;96440.16;4854098;28;102446;-78
2021/01/23 11:03:14;;;;;;;;;2.00;1.25;;;;;13.00;46.65;96441.78;4849159;28;103665;-78
2021/01/23 11:05:42;;;;;;;;;0.00;0.00;;;;;13.00;47.04;96430.94;4855299;28;102452;-78
2021/01/23 11:08:09;;;;;;;;;0.50;0.00;;;;;13.00;46.56;96435.53;4855195;28;102448;-78
2021/01/23 11:10:36;;;;;;;;;0.00;0.00;;;;;13.00;46.86;96438.25;4853960;28;102663;-79
2021/01/23 11:13:03;;;;;;;;;0.00;0.00;;;;;13.01;46.81;96434.47;4850524;28;104514;-78
2021/01/23 11:15:29;;;;;;;;;1.00;1.00;;;;;13.00;47.11;96430.94;4853684;28;105190;-78
2021/01/23 11:17:56;;;;;;;;;0.75;0.75;;;;;12.99;47.37;96432.00;4849995;28;102515;-78
2021/01/23 11:20:23;;;;;;;;;0.25;0.25;;;;;12.99;46.85;96434.72;4833877;28;102590;-78
2021/01/23 11:22:50;;;;;;;;;0.00;0.00;;;;;12.99;47.13;96434.72;4852460;28;104064;-78
2021/01/23 11:25:17;;;;;;;;;1.00;1.00;;;;;12.99;46.48;96426.59;4855379;28;102347;-79
2021/01/23 11:27:43;;;;;;;;;0.25;0.25;;;;;12.98;47.32;96423.06;4850907;28;102312;-78
2021/01/23 11:30:11;;;;;;;;;1.00;1.00;;;;;12.96;46.36;96425.25;4854249;28;102413;-78
2021/01/23 11:32:37;;;;;;;;;1.00;1.00;;;;;12.98;46.58;96424.94;4846998;28;103385;-79